地図

経路データ

SID SEASON NUMBER BASIN SUBBASIN NAME ISO_TIME NATURE LAT LON WMO_WIND WMO_PRES WMO_AGENCY TRACK_TYPE DIST2LAND LANDFALL IFLAG USA_AGENCY USA_ATCF_ID USA_LAT USA_LON USA_RECORD USA_STATUS USA_WIND USA_PRES USA_SSHS USA_R34_NE USA_R34_SE USA_R34_SW USA_R34_NW USA_R50_NE USA_R50_SE USA_R50_SW USA_R50_NW USA_R64_NE USA_R64_SE USA_R64_SW USA_R64_NW USA_POCI USA_ROCI USA_RMW USA_EYE TOKYO_LAT TOKYO_LON TOKYO_GRADE TOKYO_WIND TOKYO_PRES TOKYO_R50_DIR TOKYO_R50_LONG TOKYO_R50_SHORT TOKYO_R30_DIR TOKYO_R30_LONG TOKYO_R30_SHORT TOKYO_LAND CMA_LAT CMA_LON CMA_CAT CMA_WIND CMA_PRES HKO_LAT HKO_LON HKO_CAT HKO_WIND HKO_PRES NEWDELHI_LAT NEWDELHI_LON NEWDELHI_GRADE NEWDELHI_WIND NEWDELHI_PRES NEWDELHI_CI NEWDELHI_DP NEWDELHI_POCI REUNION_LAT REUNION_LON REUNION_TYPE REUNION_WIND REUNION_PRES REUNION_TNUM REUNION_CI REUNION_RMW REUNION_R34_NE REUNION_R34_SE REUNION_R34_SW REUNION_R34_NW REUNION_R50_NE REUNION_R50_SE REUNION_R50_SW REUNION_R50_NW REUNION_R64_NE REUNION_R64_SE REUNION_R64_SW REUNION_R64_NW BOM_LAT BOM_LON BOM_TYPE BOM_WIND BOM_PRES BOM_TNUM BOM_CI BOM_RMW BOM_R34_NE BOM_R34_SE BOM_R34_SW BOM_R34_NW BOM_R50_NE BOM_R50_SE BOM_R50_SW BOM_R50_NW BOM_R64_NE BOM_R64_SE BOM_R64_SW BOM_R64_NW BOM_ROCI BOM_POCI BOM_EYE BOM_POS_METHOD BOM_PRES_METHOD NADI_LAT NADI_LON NADI_CAT NADI_WIND NADI_PRES WELLINGTON_LAT WELLINGTON_LON WELLINGTON_WIND WELLINGTON_PRES DS824_LAT DS824_LON DS824_STAGE DS824_WIND DS824_PRES TD9636_LAT TD9636_LON TD9636_STAGE TD9636_WIND TD9636_PRES TD9635_LAT TD9635_LON TD9635_WIND TD9635_PRES TD9635_ROCI NEUMANN_LAT NEUMANN_LON NEUMANN_CLASS NEUMANN_WIND NEUMANN_PRES MLC_LAT MLC_LON MLC_CLASS MLC_WIND MLC_PRES USA_GUST BOM_GUST BOM_GUST_PER REUNION_GUST REUNION_GUST_PER USA_SEAHGT USA_SEARAD_NE USA_SEARAD_SE USA_SEARAD_SW USA_SEARAD_NW STORM_SPEED STORM_DIR
1899184N17129 1899 16 WP MM NOT_NAMED 1899-07-02 16:00:00 NR 17.2000 128.900 main 607 604 __________O___ -1 17.2000 128.900 7 11 323
1899184N17129 1899 16 WP MM NOT_NAMED 1899-07-02 18:00:00 NR 17.4985 128.660 main 611 603 __________P___ -1 17.4985 128.660 7 11 323
1899184N17129 1899 16 WP MM NOT_NAMED 1899-07-02 21:00:00 NR 17.9341 128.315 main 611 600 __________P___ -1 17.9341 128.315 7 10 324
1899184N17129 1899 16 WP MM NOT_NAMED 1899-07-03 00:00:00 NR 18.3389 128.008 main 600 580 __________P___ -1 18.3389 128.008 7 9 325
1899184N17129 1899 16 WP MM NOT_NAMED 1899-07-03 03:00:00 NR 18.6951 127.763 main 580 570 __________P___ -1 18.6951 127.763 7 8 328
1899184N17129 1899 16 WP MM NOT_NAMED 1899-07-03 04:00:00 NR 18.8000 127.700 main 570 561 __________O___ -1 18.8000 127.700 3 7 333
1899184N17129 1899 16 WP MM NOT_NAMED 1899-07-03 06:00:00 NR 18.9871 127.603 main 562 553 __________P___ -1 18.9871 127.603 3 6 338
1899184N17129 1899 16 WP MM NOT_NAMED 1899-07-03 09:00:00 NR 19.2237 127.515 main 554 554 __________P___ -1 19.2237 127.515 3 5 344
1899184N17129 1899 16 WP MM NOT_NAMED 1899-07-03 12:00:00 NR 19.4298 127.466 main 558 550 __________P___ -1 19.4298 127.466 3 4 347
1899184N17129 1899 16 WP MM NOT_NAMED 1899-07-03 15:00:00 NR 19.6302 127.420 main 552 552 __________P___ -1 19.6302 127.420 3 4 347
1899184N17129 1899 16 WP MM NOT_NAMED 1899-07-03 16:00:00 NR 19.7000 127.400 main 555 548 __________O___ -1 19.7000 127.400 4 5 337
1899184N17129 1899 16 WP MM NOT_NAMED 1899-07-03 18:00:00 NR 19.8479 127.318 main 548 544 __________P___ -1 19.8479 127.318 4 5 331
1899184N17129 1899 16 WP MM NOT_NAMED 1899-07-03 21:00:00 NR 20.0757 127.181 main 548 536 __________P___ -1 20.0757 127.181 4 5 332
1899184N17129 1899 16 WP MM NOT_NAMED 1899-07-04 00:00:00 NR 20.3218 127.046 main 536 536 __________P___ -1 20.3218 127.046 4 6 336
1899184N17129 1899 16 WP MM NOT_NAMED 1899-07-04 03:00:00 NR 20.5987 126.931 main 541 541 __________P___ -1 20.5987 126.931 4 6 340
1899184N17129 1899 16 WP MM NOT_NAMED 1899-07-04 04:00:00 NR 20.7000 126.900 main 546 546 __________O___ -1 20.7000 126.900 4 7 348
1899184N17129 1899 16 WP MM NOT_NAMED 1899-07-04 06:00:00 NR 20.9319 126.855 main 556 553 __________P___ -1 20.9319 126.855 4 7 353
1899184N17129 1899 16 WP MM NOT_NAMED 1899-07-04 09:00:00 NR 21.3116 126.813 main 571 571 __________P___ -1 21.3116 126.813 4 8 356
1899184N17129 1899 16 WP MM NOT_NAMED 1899-07-04 12:00:00 NR 21.7044 126.796 main 576 565 __________P___ -1 21.7044 126.796 4 8 0
1899184N17129 1899 16 WP MM NOT_NAMED 1899-07-04 15:00:00 NR 22.0823 126.797 main 565 562 __________P___ -1 22.0823 126.797 4 7 1
1899184N17129 1899 16 WP MM NOT_NAMED 1899-07-04 16:00:00 NR 22.2000 126.800 main 562 551 __________O___ -1 22.2000 126.800 4 6 358
1899184N17129 1899 16 WP MM NOT_NAMED 1899-07-04 18:00:00 NR 22.4035 126.795 main 551 538 __________P___ -1 22.4035 126.795 4 6 0
1899184N17129 1899 16 WP MM NOT_NAMED 1899-07-04 21:00:00 NR 22.6835 126.799 main 538 529 __________P___ -1 22.6835 126.799 4 5 2
1899184N17129 1899 16 WP MM NOT_NAMED 1899-07-05 00:00:00 NR 22.9471 126.824 main 529 522 __________P___ -1 22.9471 126.824 4 5 7
1899184N17129 1899 16 WP MM NOT_NAMED 1899-07-05 03:00:00 NR 23.2099 126.876 main 528 525 __________P___ -1 23.2099 126.876 4 5 12
1899184N17129 1899 16 WP MM NOT_NAMED 1899-07-05 04:00:00 NR 23.3000 126.900 main 525 519 __________O___ -1 23.3000 126.900 4 6 14
1899184N17129 1899 16 WP MM NOT_NAMED 1899-07-05 06:00:00 NR 23.4969 126.953 main 529 523 __________P___ -1 23.4969 126.953 4 6 16
1899184N17129 1899 16 WP MM NOT_NAMED 1899-07-05 09:00:00 NR 23.7986 127.057 main 533 527 __________P___ -1 23.7986 127.057 4 6 20
1899184N17129 1899 16 WP MM NOT_NAMED 1899-07-05 12:00:00 NR 24.1024 127.188 main 535 532 __________P___ -1 24.1024 127.188 4 7 24
1899184N17129 1899 16 WP MM NOT_NAMED 1899-07-05 15:00:00 NR 24.4021 127.343 main 539 547 __________P___ -1 24.4021 127.343 4 7 26
1899184N17129 1899 16 WP MM NOT_NAMED 1899-07-05 16:00:00 NR 24.5000 127.400 main 547 546 __________O___ -1 24.5000 127.400 4 7 30
1899184N17129 1899 16 WP MM NOT_NAMED 1899-07-05 18:00:00 NR 24.6865 127.524 main 555 555 __________P___ -1 24.6865 127.524 4 7 33
1899184N17129 1899 16 WP MM NOT_NAMED 1899-07-05 21:00:00 NR 24.9599 127.729 main 573 573 __________P___ -1 24.9599 127.729 4 7 35
1899184N17129 1899 16 WP MM NOT_NAMED 1899-07-06 00:00:00 NR 25.2310 127.941 main 594 604 __________P___ -1 25.2310 127.941 4 7 34
1899184N17129 1899 16 WP MM NOT_NAMED 1899-07-06 03:00:00 NR 25.5063 128.140 main 615 625 __________P___ -1 25.5063 128.140 4 7 32
1899184N17129 1899 16 WP MM NOT_NAMED 1899-07-06 04:00:00 NR 25.6000 128.200 main 626 626 __________O___ -1 25.6000 128.200 4 6 26
1899184N17129 1899 16 WP MM NOT_NAMED 1899-07-06 06:00:00 NR 25.7889 128.291 main 626 591 __________P___ -1 25.7889 128.291 4 6 21
1899184N17129 1899 16 WP MM NOT_NAMED 1899-07-06 09:00:00 NR 26.0784 128.407 main 591 556 __________P___ -1 26.0784 128.407 4 6 19
1899184N17129 1899 16 WP MM NOT_NAMED 1899-07-06 12:00:00 NR 26.3784 128.519 main 556 521 __________P___ -1 26.3784 128.519 4 7 19
1899184N17129 1899 16 WP MM NOT_NAMED 1899-07-06 15:00:00 NR 26.6920 128.649 main 521 507 __________P___ -1 26.6920 128.649 4 7 21
1899184N17129 1899 16 WP MM NOT_NAMED 1899-07-06 16:00:00 NR 26.8000 128.700 main 507 483 __________O___ -1 26.8000 128.700 4 7 24
1899184N17129 1899 16 WP MM NOT_NAMED 1899-07-06 18:00:00 NR 27.0217 128.817 main 483 434 __________P___ -1 27.0217 128.817 4 8 27
1899184N17129 1899 16 WP MM NOT_NAMED 1899-07-06 21:00:00 NR 27.3659 129.024 main 434 392 __________P___ -1 27.3659 129.024 4 8 29
1899184N17129 1899 16 WP MM NOT_NAMED 1899-07-07 00:00:00 NR 27.7201 129.261 main 392 343 __________P___ -1 27.7201 129.261 4 8 31
1899184N17129 1899 16 WP MM NOT_NAMED 1899-07-07 03:00:00 NR 28.0797 129.514 main 343 330 __________P___ -1 28.0797 129.514 4 9 32
1899184N17129 1899 16 WP MM NOT_NAMED 1899-07-07 04:00:00 NR 28.2000 129.600 main 330 __________O___ -1 28.2000 129.600 4 9 33

デジタル台風データ・検索

IBTrACS Databaseについて

本データベースは、米国NOAAが公開する1842年以降の世界の熱帯低気圧のベストトラックデータアーカイブInternational Best Track Archive for Climate Stewardship (IBTrACS)を、ウェブで閲覧しやすい形式に変換したものです。

最終更新日:2021-10-19